Time,TemperatureF,DewpointF,PressureIn,WindDirection,WindDirectionDegrees,WindSpeedMPH,WindSpeedGustMPH,Humidity,HourlyPrecipIn,Conditions,Clouds,dailyrainin,SolarRadiationWatts/m^2,SoftwareType,DateUTC
2013-09-04 00:02:00,62.8,59.2,29.94,ENE,62,8.0,14.0,88,0.00,,,0.00,100,Wunderground v.1.15,2013-09-04 06:02:00,
2013-09-04 00:28:00,62.8,58.9,29.93,ENE,61,5.0,14.0,87,0.00,,,0.00,100,Wunderground v.1.15,2013-09-04 06:28:00,
2013-09-04 00:34:00,62.8,59.2,29.94,East,89,5.0,14.0,88,0.00,,,0.00,100,Wunderground v.1.15,2013-09-04 06:34:00,
2013-09-04 00:44:00,62.6,59.0,29.93,East,89,4.0,14.0,88,0.00,,,0.00,98,Wunderground v.1.15,2013-09-04 06:44:00,
2013-09-04 00:50:00,62.6,59.3,29.93,East,89,4.0,14.0,89,0.00,,,0.00,98,Wunderground v.1.15,2013-09-04 06:50:00,
2013-09-04 00:56:00,62.4,59.1,29.94,East,100,4.0,14.0,89,0.00,,,0.00,98,Wunderground v.1.15,2013-09-04 06:56:00,
2013-09-04 01:02:00,61.9,58.3,29.93,SE,130,5.0,14.0,88,0.00,,,0.00,97,Wunderground v.1.15,2013-09-04 07:02:00,
2013-09-04 01:08:00,61.5,58.2,29.92,SE,130,6.0,14.0,89,0.00,,,0.00,95,Wunderground v.1.15,2013-09-04 07:08:00,
2013-09-04 01:14:00,61.3,58.3,29.94,SE,131,5.0,14.0,90,0.00,,,0.00,95,Wunderground v.1.15,2013-09-04 07:14:00,
2013-09-04 01:20:00,61.3,58.3,29.92,SE,131,4.0,4.0,90,0.00,,,0.00,93,Wunderground v.1.15,2013-09-04 07:20:00,
2013-09-04 01:26:00,61.2,58.2,29.92,SE,131,3.0,14.0,90,0.00,,,0.00,93,Wunderground v.1.15,2013-09-04 07:26:00,
2013-09-04 01:32:00,61.2,58.2,29.92,SE,131,2.0,14.0,90,0.00,,,0.00,91,Wunderground v.1.15,2013-09-04 07:32:00,
2013-09-04 01:38:00,61.1,58.1,29.91,SE,131,3.0,14.0,90,0.00,,,0.00,91,Wunderground v.1.15,2013-09-04 07:38:00,
2013-09-04 01:44:00,60.9,57.9,29.93,SE,139,4.0,14.0,90,0.00,,,0.00,91,Wunderground v.1.15,2013-09-04 07:44:00,
2013-09-04 01:50:00,60.8,57.8,29.91,SE,139,3.0,14.0,90,0.00,,,0.00,90,Wunderground v.1.15,2013-09-04 07:50:00,
2013-09-04 02:00:00,60.8,58.2,29.92,NNE,23,2.0,2.0,91,0.00,,,0.00,90,Wunderground v.1.15,2013-09-04 08:00:00,
2013-09-04 02:06:00,60.8,58.2,29.91,NNE,20,2.0,7.0,91,0.00,,,0.00,90,Wunderground v.1.15,2013-09-04 08:06:00,
2013-09-04 02:12:00,60.8,58.2,29.92,NNE,20,1.0,7.0,91,0.00,,,0.00,90,Wunderground v.1.15,2013-09-04 08:12:00,
2013-09-04 02:18:00,60.8,58.2,29.91,NNE,20,1.0,7.0,91,0.00,,,0.00,88,Wunderground v.1.15,2013-09-04 08:18:00,
2013-09-04 02:24:00,60.7,57.7,29.91,NNE,20,1.0,7.0,90,0.00,,,0.00,88,Wunderground v.1.15,2013-09-04 08:24:00,
2013-09-04 02:30:00,60.7,57.7,29.92,NNE,20,0.0,7.0,90,0.00,,,0.00,88,Wunderground v.1.15,2013-09-04 08:30:00,
2013-09-04 02:36:00,60.7,57.7,29.91,NNE,20,1.0,7.0,90,0.00,,,0.00,86,Wunderground v.1.15,2013-09-04 08:36:00,
2013-09-04 02:42:00,60.7,58.1,29.92,NNE,20,1.0,7.0,91,0.00,,,0.00,86,Wunderground v.1.15,2013-09-04 08:42:00,
2013-09-04 02:48:00,60.6,58.0,29.91,NNE,20,1.0,7.0,91,0.00,,,0.00,86,Wunderground v.1.15,2013-09-04 08:48:00,
2013-09-04 02:54:00,60.5,57.9,29.92,NNE,20,1.0,7.0,91,0.00,,,0.00,86,Wunderground v.1.15,2013-09-04 08:54:00,
2013-09-04 03:00:00,60.4,57.8,29.92,NNE,20,1.0,1.0,91,0.00,,,0.00,86,Wunderground v.1.15,2013-09-04 09:00:00,
2013-09-04 03:06:00,60.4,57.5,29.90,NNE,20,0.0,7.0,90,0.00,,,0.00,84,Wunderground v.1.15,2013-09-04 09:06:00,
2013-09-04 03:12:00,60.5,57.9,29.92,NNE,20,1.0,7.0,91,0.00,,,0.00,84,Wunderground v.1.15,2013-09-04 09:12:00,
2013-09-04 03:18:00,60.8,58.5,29.91,NNE,23,2.0,7.0,92,0.00,,,0.00,86,Wunderground v.1.15,2013-09-04 09:18:00,
2013-09-04 03:24:00,61.1,58.5,29.92,NE,51,4.0,7.0,91,0.00,,,0.00,88,Wunderground v.1.15,2013-09-04 09:24:00,
2013-09-04 03:30:00,60.7,58.1,29.90,ENE,59,5.0,7.0,91,0.00,,,0.00,88,Wunderground v.1.15,2013-09-04 09:30:00,
2013-09-04 03:36:00,60.5,57.9,29.92,ENE,59,5.0,7.0,91,0.00,,,0.00,88,Wunderground v.1.15,2013-09-04 09:36:00,
2013-09-04 03:42:00,60.3,57.4,29.92,ENE,59,6.0,7.0,90,0.00,,,0.00,88,Wunderground v.1.15,2013-09-04 09:42:00,
2013-09-04 03:48:00,60.3,57.0,29.90,ENE,58,6.0,7.0,89,0.00,,,0.00,88,Wunderground v.1.15,2013-09-04 09:48:00,
2013-09-04 03:54:00,60.4,57.1,29.92,NE,52,6.0,7.0,89,0.00,,,0.00,88,Wunderground v.1.15,2013-09-04 09:54:00,
2013-09-04 04:00:00,60.7,57.1,29.90,ENE,59,7.0,7.0,88,0.00,,,0.00,90,Wunderground v.1.15,2013-09-04 10:00:00,
2013-09-04 04:06:00,60.9,57.3,29.92,NE,56,6.0,7.0,88,0.00,,,0.00,90,Wunderground v.1.15,2013-09-04 10:06:00,
2013-09-04 04:12:00,61.1,57.2,29.90,NE,52,6.0,7.0,87,0.00,,,0.00,91,Wunderground v.1.15,2013-09-04 10:12:00,
2013-09-04 04:18:00,61.3,57.4,29.90,NE,52,5.0,7.0,87,0.00,,,0.00,91,Wunderground v.1.15,2013-09-04 10:18:00,
2013-09-04 04:24:00,61.2,57.3,29.92,ESE,106,4.0,7.0,87,0.00,,,0.00,91,Wunderground v.1.15,2013-09-04 10:24:00,
2013-09-04 04:30:00,60.6,57.0,29.91,ESE,114,4.0,7.0,88,0.00,,,0.00,90,Wunderground v.1.15,2013-09-04 10:30:00,
2013-09-04 04:36:00,59.9,57.0,29.92,SE,138,4.0,7.0,90,0.00,,,0.00,86,Wunderground v.1.15,2013-09-04 10:36:00,
2013-09-04 04:42:00,59.4,56.5,29.91,SE,143,5.0,7.0,90,0.00,,,0.00,84,Wunderground v.1.15,2013-09-04 10:42:00,
2013-09-04 04:48:00,59.0,56.1,29.93,ESE,117,6.0,7.0,90,0.00,,,0.00,84,Wunderground v.1.15,2013-09-04 10:48:00,
2013-09-04 04:54:00,58.6,55.7,29.93,ESE,112,8.0,9.0,90,0.00,,,0.00,83,Wunderground v.1.15,2013-09-04 10:54:00,
2013-09-04 05:00:00,58.0,55.4,29.93,ESE,105,8.0,8.0,91,0.00,,,0.00,81,Wunderground v.1.15,2013-09-04 11:00:00,
2013-09-04 05:06:00,57.8,55.2,29.93,ESE,106,6.0,8.0,91,0.00,,,0.00,79,Wunderground v.1.15,2013-09-04 11:06:00,
2013-09-04 05:12:00,57.6,55.0,29.92,ESE,114,6.0,7.0,91,0.00,,,0.00,79,Wunderground v.1.15,2013-09-04 11:12:00,
2013-09-04 05:18:00,57.5,54.9,29.93,ESE,111,6.0,7.0,91,0.00,,,0.00,77,Wunderground v.1.15,2013-09-04 11:18:00,
2013-09-04 05:24:00,57.8,55.2,29.91,ESE,106,6.0,7.0,91,0.00,,,0.00,77,Wunderground v.1.15,2013-09-04 11:24:00,
2013-09-04 05:30:00,58.3,55.7,29.93,ESE,106,5.0,5.0,91,0.00,,,0.00,79,Wunderground v.1.15,2013-09-04 11:30:00,
2013-09-04 05:36:00,58.0,55.1,29.93,East,91,3.0,7.0,90,0.00,,,0.00,79,Wunderground v.1.15,2013-09-04 11:36:00,
2013-09-04 05:42:00,57.7,55.1,29.93,East,100,2.0,7.0,91,0.00,,,0.00,77,Wunderground v.1.15,2013-09-04 11:42:00,
2013-09-04 05:48:00,58.0,55.4,29.93,ESE,122,5.0,8.0,91,0.00,,,0.00,79,Wunderground v.1.15,2013-09-04 11:48:00,
2013-09-04 05:54:00,57.9,55.0,29.91,ESE,116,8.0,8.0,90,0.00,,,0.00,79,Wunderground v.1.15,2013-09-04 11:54:00,
2013-09-04 06:00:00,57.9,55.0,29.93,ESE,116,7.0,7.0,90,0.00,,,0.00,79,Wunderground v.1.15,2013-09-04 12:00:00,
2013-09-04 06:06:00,57.9,55.0,29.93,ESE,116,5.0,9.0,90,0.00,,,0.00,79,Wunderground v.1.15,2013-09-04 12:06:00,
2013-09-04 06:12:00,57.9,55.3,29.92,ESE,116,5.0,9.0,91,0.00,,,0.00,79,Wunderground v.1.15,2013-09-04 12:12:00,
2013-09-04 06:18:00,58.0,55.4,29.93,ESE,116,4.0,9.0,91,0.00,,,0.00,79,Wunderground v.1.15,2013-09-04 12:18:00,
2013-09-04 06:24:00,58.0,55.4,29.92,ESE,116,3.0,9.0,91,0.00,,,0.00,79,Wunderground v.1.15,2013-09-04 12:24:00,
2013-09-04 06:30:00,58.1,55.5,29.94,ESE,116,3.0,9.0,91,0.00,,,0.00,79,Wunderground v.1.15,2013-09-04 12:30:00,
2013-09-04 06:36:00,58.3,55.7,29.94,ESE,116,3.0,9.0,91,0.00,,,0.00,79,Wunderground v.1.15,2013-09-04 12:36:00,
2013-09-04 06:42:00,58.5,56.2,29.93,ESE,116,3.0,9.0,92,0.00,,,0.00,79,Wunderground v.1.15,2013-09-04 12:42:00,
2013-09-04 06:48:00,58.7,56.1,29.94,ESE,120,6.0,9.0,91,0.00,,,0.00,77,Wunderground v.1.15,2013-09-04 12:48:00,
2013-09-04 06:54:00,58.9,56.0,29.94,ESE,121,6.0,9.0,90,0.00,,,0.00,76,Wunderground v.1.15,2013-09-04 12:54:00,
2013-09-04 07:00:00,59.0,56.1,29.93,East,83,4.0,4.0,90,0.00,,,0.00,70,Wunderground v.1.15,2013-09-04 13:00:00,
2013-09-04 07:06:00,58.8,55.9,29.95,East,83,1.0,9.0,90,0.00,,,0.00,51,Wunderground v.1.15,2013-09-04 13:06:00,
2013-09-04 07:12:00,58.8,55.9,29.93,East,83,1.0,2.0,90,0.00,,,0.00,32,Wunderground v.1.15,2013-09-04 13:12:00,
2013-09-04 07:18:00,58.9,56.3,29.95,East,96,2.0,9.0,91,0.00,,,0.00,19,Wunderground v.1.15,2013-09-04 13:18:00,
2013-09-04 07:24:00,59.1,56.2,29.94,ESE,103,5.0,9.0,90,0.00,,,0.00,0,Wunderground v.1.15,2013-09-04 13:24:00,
2013-09-04 07:30:00,59.1,56.2,29.93,East,91,6.0,9.0,90,0.00,,,0.00,0,Wunderground v.1.15,2013-09-04 13:30:00,
2013-09-04 07:36:00,59.3,56.4,29.95,ESE,110,8.0,9.0,90,0.00,,,0.00,0,Wunderground v.1.15,2013-09-04 13:36:00,
2013-09-04 07:42:00,59.4,56.5,29.94,East,95,9.0,10.0,90,0.00,,,0.00,0,Wunderground v.1.15,2013-09-04 13:42:00,
2013-09-04 07:48:00,60.1,56.8,29.93,ESE,104,11.0,15.0,89,0.00,,,0.00,0,Wunderground v.1.15,2013-09-04 13:48:00,
2013-09-04 07:54:00,60.7,56.8,29.94,ESE,118,15.0,17.0,87,0.00,,,0.00,0,Wunderground v.1.15,2013-09-04 13:54:00,
2013-09-04 08:00:00,60.8,56.9,29.93,ESE,116,16.0,17.0,87,0.00,,,0.00,0,Wunderground v.1.15,2013-09-04 14:00:00,
2013-09-04 08:06:00,60.8,57.2,29.94,ESE,109,16.0,17.0,88,0.00,,,0.00,0,Wunderground v.1.15,2013-09-04 14:06:00,
2013-09-04 08:12:00,60.9,57.0,29.94,East,98,15.0,15.0,87,0.00,,,0.00,0,Wunderground v.1.15,2013-09-04 14:12:00,
2013-09-04 08:18:00,60.9,57.0,29.93,East,99,13.0,15.0,87,0.00,,,0.00,0,Wunderground v.1.15,2013-09-04 14:18:00,
2013-09-04 08:24:00,60.9,57.0,29.95,ESE,103,12.0,14.0,87,0.00,,,0.00,0,Wunderground v.1.15,2013-09-04 14:24:00,
2013-09-04 08:30:00,61.2,57.3,29.93,ESE,107,11.0,11.0,87,0.00,,,0.00,0,Wunderground v.1.15,2013-09-04 14:30:00,
2013-09-04 08:36:00,61.6,57.4,29.93,ESE,111,10.0,11.0,86,0.00,,,0.00,0,Wunderground v.1.15,2013-09-04 14:36:00,
2013-09-04 08:46:00,62.3,57.7,29.93,SE,125,10.0,11.0,85,0.00,,,0.00,0,Wunderground v.1.15,2013-09-04 14:46:00,
2013-09-04 08:52:00,62.5,58.3,29.93,ESE,110,10.0,10.0,86,0.00,,,0.00,0,Wunderground v.1.15,2013-09-04 14:52:00,
2013-09-04 09:00:00,62.7,58.1,29.93,ESE,111,11.0,12.0,85,0.00,,,0.00,0,Wunderground v.1.15,2013-09-04 15:00:00,
2013-09-04 09:06:00,62.7,58.1,29.93,ESE,116,12.0,13.0,85,0.00,,,0.00,0,Wunderground v.1.15,2013-09-04 15:06:00,
2013-09-04 09:14:00,62.9,58.0,29.93,ESE,114,12.0,13.0,84,0.00,,,0.00,0,Wunderground v.1.15,2013-09-04 15:14:00,
2013-09-04 09:20:00,63.3,58.7,29.93,ESE,118,12.0,12.0,85,0.00,,,0.00,0,Wunderground v.1.15,2013-09-04 15:20:00,
2013-09-04 09:26:00,63.8,58.9,29.95,ESE,122,11.0,12.0,84,0.00,,,0.00,0,Wunderground v.1.15,2013-09-04 15:26:00,
2013-09-04 09:32:00,64.0,58.7,29.93,ESE,115,11.0,13.0,83,0.00,,,0.00,0,Wunderground v.1.15,2013-09-04 15:32:00,
2013-09-04 09:38:00,64.5,58.5,29.93,ESE,122,11.0,13.0,81,0.00,,,0.00,0,Wunderground v.1.15,2013-09-04 15:38:00,
2013-09-04 09:44:00,65.6,58.6,29.95,East,82,9.0,10.0,78,0.00,,,0.00,0,Wunderground v.1.15,2013-09-04 15:44:00,
2013-09-04 09:50:00,66.4,56.7,29.93,ENE,66,8.0,9.0,71,0.00,,,0.00,0,Wunderground v.1.15,2013-09-04 15:50:00,
2013-09-04 09:56:00,67.4,57.3,29.93,NE,54,8.0,9.0,70,0.00,,,0.00,0,Wunderground v.1.15,2013-09-04 15:56:00,
2013-09-04 10:02:00,68.2,56.4,29.93,ENE,61,8.0,9.0,66,0.00,,,0.00,0,Wunderground v.1.15,2013-09-04 16:02:00,
2013-09-04 10:08:00,68.8,55.7,29.93,ENE,77,8.0,9.0,63,0.00,,,0.00,0,Wunderground v.1.15,2013-09-04 16:08:00,
2013-09-04 10:14:00,69.4,56.3,29.93,ENE,63,8.0,9.0,63,0.00,,,0.00,0,Wunderground v.1.15,2013-09-04 16:14:00,
2013-09-04 10:20:00,69.8,54.8,29.93,East,85,8.0,8.0,59,0.00,,,0.00,0,Wunderground v.1.15,2013-09-04 16:20:00,
2013-09-04 10:26:00,70.2,55.2,29.93,East,95,7.0,10.0,59,0.00,,,0.00,0,Wunderground v.1.15,2013-09-04 16:26:00,
2013-09-04 10:32:00,70.4,55.4,29.92,East,89,8.0,9.0,59,0.00,,,0.00,0,Wunderground v.1.15,2013-09-04 16:32:00,
2013-09-04 10:38:00,70.6,56.9,29.92,ENE,73,9.0,11.0,62,0.00,,,0.00,0,Wunderground v.1.15,2013-09-04 16:38:00,
2013-09-04 10:44:00,70.6,55.6,29.92,East,81,10.0,12.0,59,0.00,,,0.00,0,Wunderground v.1.15,2013-09-04 16:44:00,
2013-09-04 10:50:00,71.0,55.0,29.92,East,79,10.0,10.0,57,0.00,,,0.00,0,Wunderground v.1.15,2013-09-04 16:50:00,
2013-09-04 10:56:00,71.1,55.1,29.92,East,79,11.0,13.0,57,0.00,,,0.00,0,Wunderground v.1.15,2013-09-04 16:56:00,
2013-09-04 11:02:00,71.3,54.8,29.92,NE,56,11.0,12.0,56,0.00,,,0.00,0,Wunderground v.1.15,2013-09-04 17:02:00,
2013-09-04 11:08:00,71.6,54.6,29.92,NE,56,11.0,16.0,55,0.00,,,0.00,0,Wunderground v.1.15,2013-09-04 17:08:00,
2013-09-04 11:14:00,72.0,54.9,29.92,NNE,32,10.0,16.0,55,0.00,,,0.00,0,Wunderground v.1.15,2013-09-04 17:14:00,
2013-09-04 11:20:00,72.4,54.8,29.92,ENE,67,10.0,16.0,54,0.00,,,0.00,0,Wunderground v.1.15,2013-09-04 17:20:00,
2013-09-04 11:26:00,72.6,54.5,29.92,ENE,74,9.0,16.0,53,0.00,,,0.00,0,Wunderground v.1.15,2013-09-04 17:26:00,
2013-09-04 11:32:00,72.8,54.7,29.92,ENE,74,9.0,16.0,53,0.00,,,0.00,0,Wunderground v.1.15,2013-09-04 17:32:00,
2013-09-04 11:40:00,73.0,54.3,29.92,East,89,10.0,10.0,52,0.00,,,0.00,0,Wunderground v.1.15,2013-09-04 17:40:00,
2013-09-04 11:46:00,73.2,54.0,29.92,East,97,10.0,16.0,51,0.00,,,0.00,0,Wunderground v.1.15,2013-09-04 17:46:00,
2013-09-04 11:52:00,73.4,55.7,29.92,East,93,9.0,16.0,54,0.00,,,0.00,0,Wunderground v.1.15,2013-09-04 17:52:00,
2013-09-04 11:58:00,73.9,54.1,29.91,ESE,102,8.0,16.0,50,0.00,,,0.00,0,Wunderground v.1.15,2013-09-04 17:58:00,
2013-09-04 12:04:00,74.3,54.5,29.92,ESE,108,8.0,16.0,50,0.00,,,0.00,0,Wunderground v.1.15,2013-09-04 18:04:00,
2013-09-04 12:10:00,74.6,56.3,29.91,East,80,7.0,16.0,53,0.00,,,0.00,0,Wunderground v.1.15,2013-09-04 18:10:00,
2013-09-04 12:16:00,74.9,55.0,29.91,ESE,108,7.0,16.0,50,0.00,,,0.00,0,Wunderground v.1.15,2013-09-04 18:16:00,
2013-09-04 12:22:00,75.2,53.0,29.91,ESE,120,8.0,16.0,46,0.00,,,0.00,0,Wunderground v.1.15,2013-09-04 18:22:00,
2013-09-04 12:28:00,75.5,53.3,29.90,East,89,8.0,16.0,46,0.00,,,0.00,0,Wunderground v.1.15,2013-09-04 18:28:00,
2013-09-04 12:34:00,75.8,52.9,29.91,East,82,8.0,16.0,45,0.00,,,0.00,0,Wunderground v.1.15,2013-09-04 18:34:00,
2013-09-04 12:46:00,76.4,52.9,29.90,East,93,7.0,16.0,44,0.00,,,0.00,0,Wunderground v.1.15,2013-09-04 18:46:00,
2013-09-04 12:52:00,76.7,52.5,29.90,East,98,7.0,16.0,43,0.00,,,0.00,0,Wunderground v.1.15,2013-09-04 18:52:00,
2013-09-04 12:58:00,77.1,52.9,29.90,East,91,5.0,16.0,43,0.00,,,0.00,0,Wunderground v.1.15,2013-09-04 18:58:00,
2013-09-04 13:04:00,77.5,51.9,29.89,East,87,5.0,16.0,41,0.00,,,0.00,0,Wunderground v.1.15,2013-09-04 19:04:00,
2013-09-04 13:12:00,78.5,52.2,29.89,East,87,3.0,16.0,40,0.00,,,0.00,0,Wunderground v.1.15,2013-09-04 19:12:00,
2013-09-04 13:20:00,78.2,55.1,29.89,ESE,113,5.0,16.0,45,0.00,,,0.00,0,Wunderground v.1.15,2013-09-04 19:20:00,
2013-09-04 13:26:00,77.8,52.9,29.88,East,94,9.0,16.0,42,0.00,,,0.00,0,Wunderground v.1.15,2013-09-04 19:26:00,
2013-09-04 13:32:00,78.1,51.8,29.88,ESE,114,8.0,16.0,40,0.00,,,0.00,0,Wunderground v.1.15,2013-09-04 19:32:00,
2013-09-04 13:38:00,78.5,50.8,29.88,SE,134,7.0,16.0,38,0.00,,,0.00,0,Wunderground v.1.15,2013-09-04 19:38:00,
2013-09-04 13:44:00,78.6,50.1,29.88,ESE,108,6.0,16.0,37,0.00,,,0.00,0,Wunderground v.1.15,2013-09-04 19:44:00,
2013-09-04 13:50:00,78.6,52.3,29.88,ESE,111,5.0,16.0,40,0.00,,,0.00,0,Wunderground v.1.15,2013-09-04 19:50:00,
2013-09-04 13:56:00,79.0,49.8,29.88,ESE,111,5.0,16.0,36,0.00,,,0.00,0,Wunderground v.1.15,2013-09-04 19:56:00,
2013-09-04 14:02:00,79.7,48.8,29.88,ESE,111,5.0,16.0,34,0.00,,,0.00,0,Wunderground v.1.15,2013-09-04 20:02:00,
2013-09-04 14:10:00,80.1,50.0,29.88,ESE,111,3.0,16.0,35,0.00,,,0.00,0,Wunderground v.1.15,2013-09-04 20:10:00,
2013-09-04 14:18:00,80.0,49.9,29.87,SSE,158,3.0,16.0,35,0.00,,,0.00,0,Wunderground v.1.15,2013-09-04 20:18:00,
2013-09-04 14:24:00,80.2,49.3,29.87,East,82,4.0,16.0,34,0.00,,,0.00,0,Wunderground v.1.15,2013-09-04 20:24:00,
2013-09-04 14:36:00,80.9,49.1,29.87,ENE,63,4.0,16.0,33,0.00,,,0.00,0,Wunderground v.1.15,2013-09-04 20:36:00,
2013-09-04 14:42:00,81.7,49.8,29.87,ENE,63,2.0,16.0,33,0.00,,,0.00,0,Wunderground v.1.15,2013-09-04 20:42:00,
2013-09-04 14:48:00,82.5,49.7,29.87,ENE,63,1.0,16.0,32,0.00,,,0.00,0,Wunderground v.1.15,2013-09-04 20:48:00,
2013-09-04 14:54:00,83.4,49.6,29.87,ENE,63,1.0,16.0,31,0.00,,,0.00,0,Wunderground v.1.15,2013-09-04 20:54:00,
2013-09-04 15:00:00,84.3,49.5,29.87,ENE,63,0.0,7.0,30,0.00,,,0.00,0,Wunderground v.1.15,2013-09-04 21:00:00,
2013-09-04 15:06:00,84.7,49.8,29.87,ENE,63,0.0,7.0,30,0.00,,,0.00,0,Wunderground v.1.15,2013-09-04 21:06:00,
2013-09-04 15:12:00,85.0,50.1,29.86,ENE,62,1.0,7.0,30,0.00,,,0.00,0,Wunderground v.1.15,2013-09-04 21:12:00,
2013-09-04 15:18:00,84.5,50.5,29.86,NNE,31,2.0,7.0,31,0.00,,,0.00,0,Wunderground v.1.15,2013-09-04 21:18:00,
2013-09-04 15:24:00,83.9,49.1,29.86,NNE,31,2.0,7.0,30,0.00,,,0.00,0,Wunderground v.1.15,2013-09-04 21:24:00,
2013-09-04 15:32:00,83.8,55.5,29.87,South,183,4.0,8.0,38,0.00,,,0.00,0,Wunderground v.1.15,2013-09-04 21:32:00,
2013-09-04 15:38:00,81.1,49.3,29.87,SSW,193,9.0,15.0,33,0.00,,,0.00,0,Wunderground v.1.15,2013-09-04 21:38:00,
2013-09-04 15:44:00,79.5,50.2,29.87,SSW,193,12.0,12.0,36,0.00,,,0.00,0,Wunderground v.1.15,2013-09-04 21:44:00,
2013-09-04 15:50:00,78.8,49.6,29.87,SSW,202,11.0,11.0,36,0.00,,,0.00,0,Wunderground v.1.15,2013-09-04 21:50:00,
2013-09-04 15:56:00,78.8,50.3,29.87,SSW,193,9.0,11.0,37,0.00,,,0.00,0,Wunderground v.1.15,2013-09-04 21:56:00,
2013-09-04 16:02:00,79.0,50.5,29.87,SSW,201,8.0,8.0,37,0.00,,,0.00,0,Wunderground v.1.15,2013-09-04 22:02:00,
2013-09-04 16:08:00,79.1,47.5,29.87,SSW,210,9.0,12.0,33,0.00,,,0.00,0,Wunderground v.1.15,2013-09-04 22:08:00,
2013-09-04 16:14:00,79.3,47.7,29.87,South,179,10.0,10.0,33,0.00,,,0.00,0,Wunderground v.1.15,2013-09-04 22:14:00,
2013-09-04 16:20:00,79.4,47.0,29.88,SSW,212,7.0,7.0,32,0.00,,,0.00,0,Wunderground v.1.15,2013-09-04 22:20:00,
2013-09-04 16:28:00,80.1,50.7,29.87,NW,314,2.0,7.0,36,0.00,,,0.00,0,Wunderground v.1.15,2013-09-04 22:28:00,
2013-09-04 16:34:00,80.0,51.4,29.87,West,275,5.0,8.0,37,0.00,,,0.00,0,Wunderground v.1.15,2013-09-04 22:34:00,
2013-09-04 16:40:00,79.5,48.7,29.87,NW,305,7.0,7.0,34,0.00,,,0.00,0,Wunderground v.1.15,2013-09-04 22:40:00,
2013-09-04 16:46:00,79.4,48.6,29.86,SW,224,5.0,7.0,34,0.00,,,0.00,0,Wunderground v.1.15,2013-09-04 22:46:00,
2013-09-04 16:52:00,79.5,47.9,29.86,West,271,4.0,7.0,33,0.00,,,0.00,0,Wunderground v.1.15,2013-09-04 22:52:00,
2013-09-04 16:58:00,79.6,47.1,29.86,WSW,251,4.0,7.0,32,0.00,,,0.00,0,Wunderground v.1.15,2013-09-04 22:58:00,
2013-09-04 17:04:00,79.8,50.5,29.85,WSW,251,4.0,7.0,36,0.00,,,0.00,0,Wunderground v.1.15,2013-09-04 23:04:00,
2013-09-04 17:10:00,79.8,47.3,29.85,WSW,251,3.0,7.0,32,0.00,,,0.00,0,Wunderground v.1.15,2013-09-04 23:10:00,
2013-09-04 17:16:00,79.8,48.9,29.85,WSW,251,2.0,7.0,34,0.00,,,0.00,0,Wunderground v.1.15,2013-09-04 23:16:00,
2013-09-04 17:22:00,79.9,49.8,29.85,West,267,2.0,7.0,35,0.00,,,0.00,0,Wunderground v.1.15,2013-09-04 23:22:00,
2013-09-04 17:30:00,80.1,48.4,29.85,West,269,3.0,7.0,33,0.00,,,0.00,0,Wunderground v.1.15,2013-09-04 23:30:00,
2013-09-04 17:36:00,80.6,48.8,29.85,NW,304,3.0,7.0,33,0.00,,,0.00,0,Wunderground v.1.15,2013-09-04 23:36:00,
2013-09-04 17:42:00,81.3,49.4,29.84,NW,304,3.0,7.0,33,0.00,,,0.00,0,Wunderground v.1.15,2013-09-04 23:42:00,
2013-09-04 17:48:00,82.1,50.9,29.84,NW,304,2.0,7.0,34,0.00,,,0.00,0,Wunderground v.1.15,2013-09-04 23:48:00,
2013-09-04 17:54:00,82.4,49.6,29.84,NW,304,2.0,7.0,32,0.00,,,0.00,0,Wunderground v.1.15,2013-09-04 23:54:00,
2013-09-04 18:02:00,82.4,49.6,29.84,NW,304,2.0,7.0,32,0.00,,,0.00,0,Wunderground v.1.15,2013-09-05 00:02:00,
2013-09-04 18:08:00,82.1,50.1,29.83,WSW,251,3.0,7.0,33,0.00,,,0.00,0,Wunderground v.1.15,2013-09-05 00:08:00,
2013-09-04 18:14:00,81.6,48.9,29.83,WSW,239,5.0,7.0,32,0.00,,,0.00,0,Wunderground v.1.15,2013-09-05 00:14:00,
2013-09-04 18:20:00,81.2,48.5,29.83,SW,236,7.0,7.0,32,0.00,,,0.00,0,Wunderground v.1.15,2013-09-05 00:20:00,
2013-09-04 18:26:00,80.9,51.4,29.83,SW,233,9.0,12.0,36,0.00,,,0.00,0,Wunderground v.1.15,2013-09-05 00:26:00,
2013-09-04 18:34:00,80.3,53.8,29.83,WSW,242,9.0,9.0,40,0.00,,,0.00,0,Wunderground v.1.15,2013-09-05 00:34:00,
2013-09-04 18:40:00,80.0,54.8,29.83,WSW,239,7.0,7.0,42,0.00,,,0.00,14,Wunderground v.1.15,2013-09-05 00:40:00,
2013-09-04 18:46:00,79.6,55.1,29.83,WSW,239,6.0,7.0,43,0.00,,,0.00,14,Wunderground v.1.15,2013-09-05 00:46:00,
2013-09-04 18:52:00,79.5,56.3,29.83,WSW,241,4.0,7.0,45,0.00,,,0.00,0,Wunderground v.1.15,2013-09-05 00:52:00,
2013-09-04 18:58:00,79.4,56.2,29.82,WSW,241,3.0,7.0,45,0.00,,,0.00,0,Wunderground v.1.15,2013-09-05 00:58:00,
2013-09-04 19:04:00,79.3,54.2,29.82,SW,223,3.0,7.0,42,0.00,,,0.00,0,Wunderground v.1.15,2013-09-05 01:04:00,
2013-09-04 19:10:00,79.1,53.4,29.82,SW,225,5.0,7.0,41,0.00,,,0.00,0,Wunderground v.1.15,2013-09-05 01:10:00,
2013-09-04 19:18:00,79.1,55.9,29.81,SW,225,5.0,7.0,45,0.00,,,0.00,0,Wunderground v.1.15,2013-09-05 01:18:00,
2013-09-04 19:28:00,78.8,55.7,29.81,SW,226,3.0,7.0,45,0.00,,,0.00,16,Wunderground v.1.15,2013-09-05 01:28:00,
2013-09-04 19:34:00,78.5,55.4,29.81,SW,226,2.0,7.0,45,0.00,,,0.00,39,Wunderground v.1.15,2013-09-05 01:34:00,
2013-09-04 19:40:00,78.3,55.2,29.81,SW,226,1.0,7.0,45,0.00,,,0.00,77,Wunderground v.1.15,2013-09-05 01:40:00,
2013-09-04 19:46:00,78.0,56.7,29.81,SW,226,2.0,7.0,48,0.00,,,0.00,113,Wunderground v.1.15,2013-09-05 01:46:00,
2013-09-04 19:52:00,77.3,56.6,29.81,SW,226,2.0,7.0,49,0.00,,,0.00,146,Wunderground v.1.15,2013-09-05 01:52:00,
2013-09-04 19:58:00,76.8,55.6,29.80,SW,226,2.0,7.0,48,0.00,,,0.00,156,Wunderground v.1.15,2013-09-05 01:58:00,
2013-09-04 20:04:00,76.6,55.4,29.81,SW,228,2.0,6.0,48,0.00,,,0.00,165,Wunderground v.1.15,2013-09-05 02:04:00,
2013-09-04 20:10:00,76.3,52.8,29.81,WSW,243,3.0,6.0,44,0.00,,,0.00,169,Wunderground v.1.15,2013-09-05 02:10:00,
2013-09-04 20:16:00,76.1,52.0,29.81,WSW,243,3.0,6.0,43,0.00,,,0.00,169,Wunderground v.1.15,2013-09-05 02:16:00,
2013-09-04 20:22:00,75.5,52.1,29.81,NW,318,3.0,6.0,44,0.00,,,0.00,167,Wunderground v.1.15,2013-09-05 02:22:00,
2013-09-04 20:28:00,74.8,52.0,29.81,NW,318,3.0,6.0,45,0.00,,,0.00,163,Wunderground v.1.15,2013-09-05 02:28:00,
2013-09-04 20:34:00,74.1,52.0,29.81,NW,318,3.0,6.0,46,0.00,,,0.00,158,Wunderground v.1.15,2013-09-05 02:34:00,
2013-09-04 20:40:00,73.7,51.0,29.82,NW,318,2.0,2.0,45,0.00,,,0.00,153,Wunderground v.1.15,2013-09-05 02:40:00,
2013-09-04 20:46:00,73.6,51.5,29.82,NW,318,1.0,6.0,46,0.00,,,0.00,151,Wunderground v.1.15,2013-09-05 02:46:00,
2013-09-04 20:52:00,73.5,55.8,29.82,South,191,2.0,6.0,54,0.00,,,0.00,149,Wunderground v.1.15,2013-09-05 02:52:00,
2013-09-04 20:58:00,73.0,56.4,29.82,South,191,4.0,6.0,56,0.00,,,0.00,148,Wunderground v.1.15,2013-09-05 02:58:00,
2013-09-04 21:04:00,71.8,59.4,29.83,SE,132,4.0,6.0,65,0.00,,,0.00,142,Wunderground v.1.15,2013-09-05 03:04:00,
2013-09-04 21:12:00,68.9,56.2,29.83,East,100,6.0,9.0,64,0.00,,,0.00,132,Wunderground v.1.15,2013-09-05 03:12:00,
2013-09-04 21:18:00,67.7,55.5,29.83,ESE,102,9.0,11.0,65,0.00,,,0.00,127,Wunderground v.1.15,2013-09-05 03:18:00,
2013-09-04 21:24:00,67.4,53.5,29.84,East,93,10.0,10.0,61,0.00,,,0.00,123,Wunderground v.1.15,2013-09-05 03:24:00,
2013-09-04 21:30:00,67.5,54.5,29.84,East,93,9.0,9.0,63,0.00,,,0.00,123,Wunderground v.1.15,2013-09-05 03:30:00,
2013-09-04 21:36:00,68.2,54.7,29.84,East,93,7.0,9.0,62,0.00,,,0.00,125,Wunderground v.1.15,2013-09-05 03:36:00,
2013-09-04 21:42:00,68.5,55.4,29.84,East,93,5.0,6.0,63,0.00,,,0.00,125,Wunderground v.1.15,2013-09-05 03:42:00,
2013-09-04 21:48:00,68.3,55.2,29.84,East,93,4.0,6.0,63,0.00,,,0.00,125,Wunderground v.1.15,2013-09-05 03:48:00,
2013-09-04 21:54:00,67.7,55.5,29.85,East,94,5.0,6.0,65,0.00,,,0.00,123,Wunderground v.1.15,2013-09-05 03:54:00,
2013-09-04 22:00:00,67.0,53.5,29.85,East,94,6.0,7.0,62,0.00,,,0.00,120,Wunderground v.1.15,2013-09-05 04:00:00,
2013-09-04 22:02:00,66.8,53.8,29.84,East,100,7.0,8.0,63,0.00,,,0.00,120,Wunderground v.1.15,2013-09-05 04:02:00,
2013-09-04 22:04:00,66.7,55.0,29.84,East,99,7.0,8.0,66,0.00,,,0.00,118,Wunderground v.1.15,2013-09-05 04:04:00,
2013-09-04 22:10:00,66.3,53.3,29.85,East,99,7.0,7.0,63,0.00,,,0.00,116,Wunderground v.1.15,2013-09-05 04:10:00,
2013-09-04 22:12:00,66.2,52.8,29.85,East,87,7.0,7.0,62,0.00,,,0.00,116,Wunderground v.1.15,2013-09-05 04:12:00,
2013-09-04 22:18:00,66.2,52.8,29.85,East,79,7.0,7.0,62,0.00,,,0.00,114,Wunderground v.1.15,2013-09-05 04:18:00,
2013-09-04 22:24:00,66.6,54.0,29.85,East,79,6.0,6.0,64,0.00,,,0.00,116,Wunderground v.1.15,2013-09-05 04:24:00,
2013-09-04 22:30:00,67.0,54.0,29.84,East,93,7.0,7.0,63,0.00,,,0.00,118,Wunderground v.1.15,2013-09-05 04:30:00,
2013-09-04 22:38:00,67.1,53.2,29.84,East,84,6.0,7.0,61,0.00,,,0.00,118,Wunderground v.1.15,2013-09-05 04:38:00,
2013-09-04 22:44:00,67.4,53.5,29.85,ENE,75,6.0,7.0,61,0.00,,,0.00,120,Wunderground v.1.15,2013-09-05 04:44:00,
2013-09-04 22:50:00,67.5,54.0,29.85,East,89,7.0,7.0,62,0.00,,,0.00,120,Wunderground v.1.15,2013-09-05 04:50:00,
2013-09-04 22:56:00,67.0,53.5,29.85,East,88,7.0,9.0,62,0.00,,,0.00,120,Wunderground v.1.15,2013-09-05 04:56:00,
2013-09-04 23:04:00,66.9,53.0,29.85,ENE,72,8.0,8.0,61,0.00,,,0.00,120,Wunderground v.1.15,2013-09-05 05:04:00,
2013-09-04 23:10:00,67.0,54.0,29.85,ENE,71,5.0,5.0,63,0.00,,,0.00,120,Wunderground v.1.15,2013-09-05 05:10:00,
2013-09-04 23:16:00,66.6,56.1,29.85,ENE,71,3.0,6.0,69,0.00,,,0.00,118,Wunderground v.1.15,2013-09-05 05:16:00,
2013-09-04 23:22:00,65.6,53.9,29.85,ENE,71,3.0,6.0,66,0.00,,,0.00,113,Wunderground v.1.15,2013-09-05 05:22:00,
2013-09-04 23:28:00,65.1,54.3,29.85,SE,133,4.0,7.0,68,0.00,,,0.00,111,Wunderground v.1.15,2013-09-05 05:28:00,
2013-09-04 23:36:00,64.4,54.8,29.84,ESE,119,7.0,9.0,71,0.00,,,0.00,107,Wunderground v.1.15,2013-09-05 05:36:00,
2013-09-04 23:48:00,63.1,53.2,29.84,East,93,11.0,12.0,70,0.00,,,0.00,104,Wunderground v.1.15,2013-09-05 05:48:00,
2013-09-04 23:54:00,62.3,52.8,29.84,East,92,10.0,10.0,71,0.00,,,0.00,98,Wunderground v.1.15,2013-09-05 05:54:00,